createdAt,value
2023-05-16T00:02:08.961Z,7.13
2023-05-16T00:04:36.779Z,7.32
2023-05-16T00:07:03.783Z,6.82
2023-05-16T00:09:30.618Z,6.85
2023-05-16T00:11:58.019Z,6.85
2023-05-16T00:14:26.365Z,7.32
2023-05-16T00:16:54.535Z,7.10
2023-05-16T00:19:21.475Z,8.13
2023-05-16T00:21:48.362Z,7.05
2023-05-16T00:24:15.699Z,8.45
2023-05-16T00:26:42.569Z,7.45
2023-05-16T00:29:11.806Z,8.40
2023-05-16T00:31:38.656Z,8.40
2023-05-16T00:34:05.564Z,8.70
2023-05-16T00:36:33.047Z,7.90
2023-05-16T00:38:59.743Z,8.05
2023-05-16T00:41:26.948Z,7.90
2023-05-16T00:43:54.089Z,8.15
2023-05-16T00:46:21.169Z,7.38
2023-05-16T00:48:50.763Z,8.55
2023-05-16T00:51:18.397Z,8.35
2023-05-16T00:53:45.504Z,7.80
2023-05-16T00:56:12.519Z,8.48
2023-05-16T00:58:39.331Z,8.05
2023-05-16T01:01:06.254Z,7.88
2023-05-16T01:03:33.375Z,8.27
2023-05-16T01:06:00.384Z,7.60
2023-05-16T01:08:28.244Z,8.18
2023-05-16T01:11:16.305Z,8.75
2023-05-16T01:14:01.165Z,7.68
2023-05-16T01:16:54.352Z,7.60
2023-05-16T01:19:35.357Z,9.88
2023-05-16T01:22:17.263Z,8.18
2023-05-16T01:24:50.761Z,8.02
2023-05-16T01:27:18.154Z,7.82
2023-05-16T01:29:45.038Z,7.95
2023-05-16T01:32:11.998Z,8.05
2023-05-16T01:34:38.902Z,7.72
2023-05-16T01:37:06.064Z,7.55
2023-05-16T01:39:47.837Z,7.63
2023-05-16T01:42:16.372Z,7.72
2023-05-16T01:44:43.281Z,8.15
2023-05-16T01:47:13.686Z,7.07
2023-05-16T01:50:06.140Z,6.90
2023-05-16T01:52:45.365Z,8.07
2023-05-16T01:55:29.286Z,6.68
2023-05-16T01:57:56.789Z,7.70
2023-05-16T02:00:23.844Z,7.15
2023-05-16T02:02:50.617Z,7.65
2023-05-16T02:05:17.565Z,8.45
2023-05-16T02:07:44.666Z,8.00
2023-05-16T02:10:12.404Z,7.50
2023-05-16T02:12:39.169Z,7.72
2023-05-16T02:15:07.063Z,7.75
2023-05-16T02:17:34.036Z,7.10
2023-05-16T02:20:09.415Z,8.32
2023-05-16T02:22:39.850Z,7.35
2023-05-16T02:25:08.766Z,7.75
2023-05-16T02:27:36.391Z,7.53
2023-05-16T02:30:04.810Z,8.55
2023-05-16T02:32:32.891Z,8.13
2023-05-16T02:34:59.881Z,9.10
2023-05-16T02:37:27.067Z,8.68
2023-05-16T02:39:53.903Z,7.93
2023-05-16T02:42:20.933Z,8.88
2023-05-16T02:44:47.824Z,8.68
2023-05-16T02:47:14.764Z,7.90
2023-05-16T02:49:41.711Z,7.93
2023-05-16T02:52:08.602Z,8.23
2023-05-16T02:54:35.764Z,8.15
2023-05-16T02:57:02.743Z,7.95
2023-05-16T02:59:29.584Z,8.68
2023-05-16T03:01:56.532Z,8.68
2023-05-16T03:04:23.832Z,8.27
2023-05-16T03:06:51.326Z,8.05
2023-05-16T03:09:18.731Z,7.55
2023-05-16T03:11:46.029Z,8.32
2023-05-16T03:14:12.957Z,8.45
2023-05-16T03:16:41.725Z,8.18
2023-05-16T03:19:08.656Z,7.95
2023-05-16T03:21:35.586Z,8.52
2023-05-16T03:24:06.268Z,8.15
2023-05-16T03:26:33.204Z,8.23
2023-05-16T03:29:00.109Z,7.57
2023-05-16T03:31:38.273Z,7.55
2023-05-16T03:34:05.095Z,7.93
2023-05-16T03:36:31.856Z,9.20
2023-05-16T03:38:58.749Z,8.45
2023-05-16T03:41:26.645Z,9.40
2023-05-16T03:43:53.495Z,8.43
2023-05-16T03:46:20.483Z,8.25
2023-05-16T03:48:47.345Z,9.35
2023-05-16T03:51:14.344Z,8.65
2023-05-16T03:53:41.581Z,8.13
2023-05-16T03:56:08.533Z,8.70
2023-05-16T03:58:35.599Z,7.95
2023-05-16T04:01:02.660Z,7.82
2023-05-16T04:03:30.318Z,7.93
2023-05-16T04:05:58.245Z,8.25
2023-05-16T04:08:25.761Z,8.40
2023-05-16T04:10:52.622Z,8.02
2023-05-16T04:13:19.408Z,7.63
2023-05-16T04:15:49.099Z,6.97
2023-05-16T04:18:18.617Z,8.00
2023-05-16T04:20:47.810Z,8.25
2023-05-16T04:23:14.618Z,8.05
2023-05-16T04:25:44.804Z,7.50
2023-05-16T04:28:12.029Z,7.53
2023-05-16T04:30:38.965Z,7.18
2023-05-16T04:33:06.372Z,8.70
2023-05-16T04:35:33.824Z,7.78
2023-05-16T04:38:01.351Z,8.07
2023-05-16T04:40:28.448Z,8.18
2023-05-16T04:42:55.659Z,7.68
2023-05-16T04:45:25.730Z,8.23
2023-05-16T04:47:56.290Z,9.95
2023-05-16T04:50:23.095Z,15.90
2023-05-16T04:52:49.960Z,18.67
2023-05-16T04:55:16.759Z,18.63
2023-05-16T04:57:43.751Z,15.02
2023-05-16T05:00:19.809Z,12.45
2023-05-16T05:02:48.000Z,9.93
2023-05-16T05:05:15.100Z,9.88
2023-05-16T05:07:42.907Z,8.77
2023-05-16T05:10:11.063Z,9.02
2023-05-16T05:12:41.116Z,9.80
2023-05-16T05:15:08.888Z,9.93
2023-05-16T05:17:38.691Z,9.95
2023-05-16T05:20:06.949Z,10.15
2023-05-16T05:22:34.338Z,10.25
2023-05-16T05:25:01.220Z,10.38
2023-05-16T05:27:31.447Z,10.88
2023-05-16T05:29:58.310Z,10.43
2023-05-16T05:32:25.222Z,10.25
2023-05-16T05:34:52.701Z,10.75
2023-05-16T05:37:19.526Z,9.60
2023-05-16T05:39:49.655Z,10.55
2023-05-16T05:42:16.568Z,9.82
2023-05-16T05:44:43.439Z,8.75
2023-05-16T05:47:10.369Z,10.55
2023-05-16T05:49:37.370Z,10.85
2023-05-16T05:52:04.590Z,9.85
2023-05-16T05:54:31.468Z,10.18
2023-05-16T05:56:58.780Z,10.23
2023-05-16T05:59:26.120Z,10.75
2023-05-16T06:01:53.241Z,10.43
2023-05-16T06:04:20.874Z,10.18
2023-05-16T06:06:48.212Z,10.75
2023-05-16T06:09:15.175Z,10.18
2023-05-16T06:11:43.380Z,11.32
2023-05-16T06:14:10.166Z,10.40
2023-05-16T06:16:36.958Z,10.43
2023-05-16T06:19:04.456Z,11.30
2023-05-16T06:21:31.333Z,10.52
2023-05-16T06:23:58.079Z,11.07
2023-05-16T06:26:24.888Z,11.20
2023-05-16T06:28:51.841Z,11.25
2023-05-16T06:31:18.686Z,11.52
2023-05-16T06:33:45.929Z,10.85
2023-05-16T06:36:12.674Z,10.27
2023-05-16T06:38:39.490Z,10.60
2023-05-16T06:41:06.298Z,10.27
2023-05-16T06:43:33.118Z,11.10
2023-05-16T06:45:59.892Z,11.30
2023-05-16T06:48:26.743Z,11.35
2023-05-16T06:50:53.634Z,12.38
2023-05-16T06:53:20.853Z,11.05
2023-05-16T06:55:48.024Z,11.18
2023-05-16T06:58:15.194Z,11.90
2023-05-16T07:00:42.104Z,10.80
2023-05-16T07:03:09.055Z,11.25
2023-05-16T07:05:35.949Z,12.35
2023-05-16T07:08:03.874Z,13.30
2023-05-16T07:10:31.913Z,11.82
2023-05-16T07:13:00.439Z,11.93
2023-05-16T07:15:27.620Z,12.48
2023-05-16T07:17:54.534Z,12.48
2023-05-16T07:20:21.509Z,13.60
2023-05-16T07:22:48.265Z,13.10
2023-05-16T07:25:16.231Z,13.40
2023-05-16T07:27:44.927Z,13.00
2023-05-16T07:30:13.191Z,12.57
2023-05-16T07:32:41.641Z,13.48
2023-05-16T07:35:09.573Z,13.20
2023-05-16T07:37:36.473Z,14.25
2023-05-16T07:40:03.889Z,13.60
2023-05-16T07:42:31.787Z,13.43
2023-05-16T07:44:58.584Z,12.65
2023-05-16T07:47:25.942Z,12.55
2023-05-16T07:49:52.964Z,13.77
2023-05-16T07:52:19.995Z,12.38
2023-05-16T07:54:47.365Z,11.65
2023-05-16T07:57:15.531Z,12.63
2023-05-16T07:59:43.398Z,11.88
2023-05-16T08:02:10.997Z,12.10
2023-05-16T08:04:38.737Z,12.45
2023-05-16T08:07:06.148Z,11.98
2023-05-16T08:09:33.293Z,11.23
2023-05-16T08:12:03.663Z,11.80
2023-05-16T08:14:32.537Z,11.38
2023-05-16T08:17:00.592Z,12.07
2023-05-16T08:19:27.883Z,11.57
2023-05-16T08:21:55.033Z,11.45
2023-05-16T08:24:21.824Z,11.25
2023-05-16T08:26:48.663Z,11.45
2023-05-16T08:29:15.552Z,11.30
2023-05-16T08:31:42.472Z,11.73
2023-05-16T08:34:15.962Z,11.93
2023-05-16T08:36:45.646Z,11.10
2023-05-16T08:39:12.755Z,11.15
2023-05-16T08:41:45.164Z,11.20
2023-05-16T08:44:13.246Z,10.65
2023-05-16T08:46:41.677Z,10.48
2023-05-16T08:49:12.414Z,11.40
2023-05-16T08:51:40.273Z,9.98
2023-05-16T08:54:12.215Z,9.38
2023-05-16T08:59:06.579Z,10.18
2023-05-16T09:01:33.992Z,10.18
2023-05-16T09:04:02.411Z,9.60
2023-05-16T09:06:29.328Z,9.82
2023-05-16T09:08:57.677Z,9.27
2023-05-16T09:11:24.549Z,10.50
2023-05-16T09:13:51.387Z,9.63
2023-05-16T09:16:20.100Z,9.40
2023-05-16T09:19:00.813Z,10.45
2023-05-16T09:21:36.939Z,11.00
2023-05-16T09:24:05.029Z,10.10
2023-05-16T09:26:33.700Z,8.93
2023-05-16T09:29:02.361Z,9.80
2023-05-16T09:31:38.398Z,10.10
2023-05-16T09:34:09.255Z,9.43
2023-05-16T09:36:36.860Z,8.60
2023-05-16T09:39:04.192Z,9.43
2023-05-16T09:41:35.230Z,9.38
2023-05-16T09:44:08.169Z,9.07
2023-05-16T09:46:36.248Z,10.13
2023-05-16T09:49:03.236Z,10.27
2023-05-16T09:51:30.039Z,10.75
2023-05-16T09:53:59.482Z,9.57
2023-05-16T09:56:26.410Z,10.05
2023-05-16T09:58:53.225Z,10.40
2023-05-16T10:01:20.636Z,10.80
2023-05-16T10:03:47.695Z,10.32
2023-05-16T10:06:16.685Z,9.95
2023-05-16T10:08:47.379Z,11.57
2023-05-16T10:11:15.267Z,10.35
2023-05-16T10:13:42.290Z,10.13
2023-05-16T10:16:12.469Z,10.55
2023-05-16T10:18:40.781Z,10.82
2023-05-16T10:21:16.918Z,10.45
2023-05-16T10:23:47.482Z,11.15
2023-05-16T10:26:16.863Z,10.13
2023-05-16T10:28:44.199Z,11.43
2023-05-16T10:31:11.965Z,9.90
2023-05-16T10:33:39.778Z,10.57
2023-05-16T10:36:10.703Z,10.70
2023-05-16T10:38:39.015Z,10.73
2023-05-16T10:41:09.936Z,9.57
2023-05-16T10:43:36.848Z,10.17
2023-05-16T10:46:05.874Z,10.07
2023-05-16T10:48:38.907Z,10.77
2023-05-16T10:51:23.953Z,11.07
2023-05-16T10:53:55.240Z,12.95
2023-05-16T10:56:27.298Z,11.30
2023-05-16T10:58:56.063Z,11.52
2023-05-16T11:01:30.406Z,12.13
2023-05-16T11:03:57.322Z,11.98
2023-05-16T11:06:28.930Z,12.35
2023-05-16T11:09:10.074Z,11.68
2023-05-16T11:11:40.703Z,11.57
2023-05-16T11:14:08.250Z,10.82
2023-05-16T11:16:36.387Z,11.45
2023-05-16T11:19:07.313Z,10.85
2023-05-16T11:22:15.610Z,10.60
2023-05-16T11:24:51.528Z,11.68
2023-05-16T11:27:33.305Z,11.20
2023-05-16T11:30:21.915Z,11.15
2023-05-16T11:32:50.669Z,10.75
2023-05-16T11:35:18.877Z,12.35
2023-05-16T11:37:47.179Z,13.05
2023-05-16T11:40:15.721Z,8.43
2023-05-16T11:42:44.791Z,7.20
2023-05-16T11:45:16.855Z,7.07
2023-05-16T11:47:46.217Z,5.95
2023-05-16T11:50:21.242Z,6.07
2023-05-16T11:52:53.835Z,6.95
2023-05-16T11:55:36.758Z,5.97
2023-05-16T11:58:08.913Z,5.95
2023-05-16T12:00:35.783Z,6.07
2023-05-16T12:03:05.829Z,6.00
2023-05-16T12:05:35.070Z,6.60
2023-05-16T12:08:02.887Z,5.82
2023-05-16T12:10:34.338Z,5.60
2023-05-16T12:15:29.288Z,6.05
2023-05-16T12:17:57.134Z,6.15
2023-05-16T12:20:26.075Z,6.35
2023-05-16T12:22:53.118Z,6.65
2023-05-16T12:25:24.336Z,6.07
2023-05-16T12:27:52.815Z,6.43
2023-05-16T12:30:21.660Z,6.13
2023-05-16T12:33:00.071Z,6.18
2023-05-16T12:35:31.224Z,6.05
2023-05-16T12:37:58.040Z,6.70
2023-05-16T12:40:29.043Z,5.55
2023-05-16T12:42:56.322Z,6.47
2023-05-16T12:45:23.669Z,7.28
2023-05-16T12:47:51.129Z,7.05
2023-05-16T12:50:18.106Z,9.05
2023-05-16T12:52:52.954Z,10.02
2023-05-16T12:55:21.215Z,10.02
2023-05-16T12:57:49.134Z,10.27
2023-05-16T13:00:21.170Z,11.70
2023-05-16T13:02:49.120Z,11.05
2023-05-16T13:05:16.383Z,11.48
2023-05-16T13:07:43.977Z,12.25
2023-05-16T13:10:12.221Z,12.90
2023-05-16T13:12:40.143Z,11.95
2023-05-16T13:17:48.225Z,9.93
2023-05-16T13:20:15.524Z,9.95
2023-05-16T13:22:44.995Z,10.18
2023-05-16T13:25:12.254Z,8.75
2023-05-16T13:27:39.289Z,8.77
2023-05-16T13:30:07.444Z,8.68
2023-05-16T13:32:34.377Z,8.35
2023-05-16T13:35:01.208Z,9.90
2023-05-16T13:37:28.096Z,9.15
2023-05-16T13:39:56.045Z,8.65
2023-05-16T13:42:22.960Z,8.48
2023-05-16T13:44:50.053Z,9.07
2023-05-16T13:47:16.982Z,8.85
2023-05-16T13:49:43.898Z,9.10
2023-05-16T13:52:11.034Z,8.48
2023-05-16T13:54:39.687Z,9.82
2023-05-16T13:57:07.350Z,9.65
2023-05-16T14:02:04.673Z,10.60
2023-05-16T14:04:31.721Z,10.40
2023-05-16T14:06:58.708Z,12.00
2023-05-16T14:09:25.534Z,12.73
2023-05-16T14:11:52.566Z,13.68
2023-05-16T14:14:19.365Z,14.50
2023-05-16T14:16:49.066Z,16.45
2023-05-16T14:19:18.947Z,16.40
2023-05-16T14:21:46.573Z,15.93
2023-05-16T14:24:13.566Z,16.20
2023-05-16T14:26:41.346Z,15.70
2023-05-16T14:29:08.391Z,16.80
2023-05-16T14:31:36.665Z,14.27
2023-05-16T14:34:06.666Z,13.75
2023-05-16T14:36:33.570Z,15.18
2023-05-16T14:39:00.734Z,12.25
2023-05-16T14:41:27.775Z,9.98
2023-05-16T14:43:58.426Z,10.82
2023-05-16T14:46:25.282Z,11.95
2023-05-16T14:48:52.803Z,11.23
2023-05-16T14:51:19.623Z,9.95
2023-05-16T14:53:49.467Z,10.32
2023-05-16T14:56:16.567Z,10.05
2023-05-16T14:58:43.707Z,10.38
2023-05-16T15:01:10.884Z,9.13
2023-05-16T15:03:53.803Z,8.65
2023-05-16T15:06:22.538Z,10.50
2023-05-16T15:08:49.480Z,10.77
2023-05-16T15:11:16.372Z,11.02
2023-05-16T15:13:43.263Z,10.52
2023-05-16T15:16:10.424Z,9.90
2023-05-16T15:18:37.660Z,10.00
2023-05-16T15:21:04.726Z,8.93
2023-05-16T15:23:31.824Z,9.30
2023-05-16T15:25:58.695Z,8.60
2023-05-16T15:28:25.755Z,9.40
2023-05-16T15:30:52.703Z,10.32
2023-05-16T15:33:19.956Z,8.32
2023-05-16T15:35:46.946Z,9.57
2023-05-16T15:38:14.111Z,8.88
2023-05-16T15:40:41.098Z,10.07
2023-05-16T15:43:08.470Z,10.30
2023-05-16T15:45:37.288Z,10.05
2023-05-16T15:48:06.036Z,10.38
2023-05-16T15:50:32.947Z,11.07
2023-05-16T15:53:00.088Z,10.52
2023-05-16T15:55:27.218Z,9.98
2023-05-16T15:57:57.404Z,9.90
2023-05-16T16:00:27.096Z,10.98
2023-05-16T16:02:54.287Z,11.38
2023-05-16T16:05:21.368Z,11.45
2023-05-16T16:07:48.253Z,11.32
2023-05-16T16:10:15.400Z,12.65
2023-05-16T16:12:42.387Z,12.43
2023-05-16T16:15:12.448Z,11.70
2023-05-16T16:17:42.036Z,12.07
2023-05-16T16:20:09.296Z,12.15
2023-05-16T16:22:40.433Z,13.05
2023-05-16T16:25:07.865Z,10.13
2023-05-16T16:27:34.763Z,13.27
2023-05-16T16:30:01.805Z,12.70
2023-05-16T16:32:28.747Z,13.52
2023-05-16T16:34:56.182Z,12.02
2023-05-16T16:37:23.278Z,13.68
2023-05-16T16:39:52.731Z,13.57
2023-05-16T16:42:19.594Z,14.23
2023-05-16T16:44:52.494Z,15.13
2023-05-16T16:47:19.912Z,15.70
2023-05-16T16:49:46.885Z,15.85
2023-05-16T16:52:13.978Z,14.52
2023-05-16T16:54:40.819Z,15.10
2023-05-16T16:57:07.789Z,15.00
2023-05-16T16:59:34.987Z,14.15
2023-05-16T17:02:01.947Z,15.10
2023-05-16T17:04:28.763Z,14.23
2023-05-16T17:06:55.905Z,14.75
2023-05-16T17:09:23.578Z,15.70
2023-05-16T17:11:50.838Z,15.27
2023-05-16T17:14:17.823Z,15.55
2023-05-16T17:16:44.973Z,16.65
2023-05-16T17:19:11.912Z,15.57
2023-05-16T17:21:40.739Z,16.02
2023-05-16T17:24:08.219Z,20.60
2023-05-16T17:26:35.564Z,17.63
2023-05-16T17:29:04.280Z,17.23
2023-05-16T17:31:31.255Z,18.23
2023-05-16T17:33:58.507Z,18.75
2023-05-16T17:36:25.379Z,17.88
2023-05-16T17:38:52.445Z,20.45
2023-05-16T17:41:20.616Z,18.85
2023-05-16T17:43:53.611Z,19.65
2023-05-16T17:46:20.730Z,18.00
2023-05-16T17:48:47.782Z,16.23
2023-05-16T17:51:14.854Z,13.93
2023-05-16T17:53:43.069Z,12.07
2023-05-16T17:56:10.256Z,11.32
2023-05-16T17:58:37.134Z,11.63
2023-05-16T18:01:05.142Z,10.35
2023-05-16T18:03:32.167Z,9.88
2023-05-16T18:05:59.452Z,10.10
2023-05-16T18:08:26.424Z,11.27
2023-05-16T18:10:53.325Z,9.75
2023-05-16T18:13:22.205Z,9.95
2023-05-16T18:15:49.444Z,9.63
2023-05-16T18:18:17.580Z,10.55
2023-05-16T18:20:46.129Z,9.38
2023-05-16T18:23:13.196Z,10.63
2023-05-16T18:25:40.131Z,10.18
2023-05-16T18:28:07.792Z,9.98
2023-05-16T18:30:37.038Z,10.68
2023-05-16T18:33:04.909Z,9.45
2023-05-16T18:35:31.825Z,9.68
2023-05-16T18:37:58.810Z,8.73
2023-05-16T18:40:26.038Z,9.27
2023-05-16T18:42:52.886Z,9.48
2023-05-16T18:45:20.001Z,9.15
2023-05-16T18:47:47.119Z,8.98
2023-05-16T18:50:14.183Z,9.77
2023-05-16T18:52:41.569Z,8.43
2023-05-16T18:55:08.895Z,9.32
2023-05-16T18:57:35.922Z,8.18
2023-05-16T19:00:06.780Z,8.68
2023-05-16T19:02:41.702Z,8.20
2023-05-16T19:05:10.817Z,8.23
2023-05-16T19:07:37.926Z,7.88
2023-05-16T19:10:05.071Z,7.82
2023-05-16T19:12:31.910Z,8.75
2023-05-16T19:17:33.482Z,8.38
2023-05-16T19:20:00.564Z,8.35
2023-05-16T19:22:27.568Z,8.40
2023-05-16T19:24:54.420Z,8.13
2023-05-16T19:27:21.196Z,9.23
2023-05-16T19:29:49.239Z,8.82
2023-05-16T19:32:16.072Z,7.70
2023-05-16T19:34:43.077Z,8.50
2023-05-16T19:37:09.912Z,7.75
2023-05-16T19:39:36.880Z,8.63
2023-05-16T19:42:07.350Z,7.55
2023-05-16T19:44:34.876Z,7.00
2023-05-16T19:47:01.850Z,7.53
2023-05-16T19:49:29.140Z,7.15
2023-05-16T19:51:55.911Z,7.40
2023-05-16T19:54:22.713Z,6.60
2023-05-16T19:56:49.569Z,7.88
2023-05-16T19:59:16.341Z,8.05
2023-05-16T20:01:43.129Z,6.70
2023-05-16T20:04:10.197Z,7.03
2023-05-16T20:06:37.242Z,6.57
2023-05-16T20:09:04.147Z,6.60
2023-05-16T20:11:31.088Z,6.00
2023-05-16T20:14:00.051Z,6.78
2023-05-16T20:16:27.597Z,8.80
2023-05-16T20:18:54.712Z,6.72
2023-05-16T20:21:21.655Z,6.13
2023-05-16T20:23:48.487Z,4.85
2023-05-16T20:26:15.716Z,4.32
2023-05-16T20:28:42.518Z,5.40
2023-05-16T20:31:09.649Z,4.85
2023-05-16T20:33:36.640Z,4.28
2023-05-16T20:36:03.715Z,4.47
2023-05-16T20:38:30.557Z,4.75
2023-05-16T20:40:57.471Z,3.70
2023-05-16T20:43:26.495Z,4.53
2023-05-16T20:45:53.554Z,3.90
2023-05-16T20:48:21.016Z,4.22
2023-05-16T20:50:48.026Z,3.67
2023-05-16T20:53:14.967Z,3.30
2023-05-16T20:55:41.779Z,4.03
2023-05-16T20:58:08.678Z,4.20
2023-05-16T21:00:35.691Z,4.00
2023-05-16T21:03:02.809Z,3.25
2023-05-16T21:05:29.823Z,3.63
2023-05-16T21:07:56.661Z,3.20
2023-05-16T21:10:25.039Z,3.97
2023-05-16T21:12:51.872Z,4.10
2023-05-16T21:15:19.444Z,4.28
2023-05-16T21:17:47.830Z,4.65
2023-05-16T21:20:14.745Z,3.60
2023-05-16T21:22:42.636Z,3.33
2023-05-16T21:25:09.711Z,4.30
2023-05-16T21:27:36.536Z,4.07
2023-05-16T21:30:04.050Z,3.83
2023-05-16T21:32:32.613Z,4.55
2023-05-16T21:35:01.214Z,3.70
2023-05-16T21:37:30.021Z,4.20
2023-05-16T21:39:56.800Z,4.47
2023-05-16T21:42:23.776Z,3.95
2023-05-16T21:44:50.759Z,3.60
2023-05-16T21:47:17.635Z,3.28
2023-05-16T21:49:44.481Z,3.45
2023-05-16T21:52:11.349Z,3.78
2023-05-16T21:54:38.095Z,3.50
2023-05-16T21:57:06.483Z,4.45
2023-05-16T21:59:33.415Z,3.90
2023-05-16T22:02:00.192Z,3.95
2023-05-16T22:04:27.191Z,4.28
2023-05-16T22:06:54.149Z,4.30
2023-05-16T22:09:21.077Z,4.38
2023-05-16T22:11:47.961Z,4.55
2023-05-16T22:14:14.796Z,3.78
2023-05-16T22:16:41.661Z,4.03
2023-05-16T22:19:09.059Z,4.43
2023-05-16T22:21:36.126Z,3.92
2023-05-16T22:24:03.205Z,3.70
2023-05-16T22:26:30.165Z,3.63
2023-05-16T22:28:57.061Z,3.85
2023-05-16T22:31:23.889Z,3.92
2023-05-16T22:33:50.814Z,3.60
2023-05-16T22:36:21.526Z,4.28
2023-05-16T22:38:48.295Z,3.55
2023-05-16T22:41:15.231Z,3.60
2023-05-16T22:43:42.280Z,3.83
2023-05-16T22:46:09.219Z,2.80
2023-05-16T22:48:36.268Z,3.80
2023-05-16T22:51:03.474Z,3.78
2023-05-16T22:53:30.259Z,3.83
2023-05-16T22:55:57.153Z,3.38
2023-05-16T22:58:24.035Z,3.17
2023-05-16T23:00:51.059Z,3.13
2023-05-16T23:03:17.898Z,3.92
2023-05-16T23:05:44.739Z,3.35
2023-05-16T23:08:11.653Z,3.67
2023-05-16T23:10:38.541Z,3.80
2023-05-16T23:13:05.646Z,4.60
2023-05-16T23:15:32.437Z,4.75
2023-05-16T23:17:59.285Z,3.78
2023-05-16T23:20:26.129Z,3.95
2023-05-16T23:22:53.008Z,4.07
2023-05-16T23:25:19.873Z,3.92
2023-05-16T23:27:46.795Z,4.50
2023-05-16T23:30:14.093Z,3.65
2023-05-16T23:32:41.020Z,3.55
2023-05-16T23:35:08.254Z,3.13
2023-05-16T23:37:35.183Z,3.65
2023-05-16T23:40:01.968Z,4.00
2023-05-16T23:42:28.776Z,3.22
2023-05-16T23:44:55.574Z,3.72
2023-05-16T23:47:23.102Z,3.45
2023-05-16T23:49:53.094Z,4.63
2023-05-16T23:52:20.075Z,4.18
2023-05-16T23:54:46.892Z,3.45
2023-05-16T23:57:13.655Z,3.78
2023-05-16T23:59:41.278Z,3.60
